Check out our new PWSWeather beta!
PWSweather.com
Personal Weather Stations
Station Observations

PoschiavoCH

Lat: 46.31962499999999, Lon: 10.066551000000004

Elevation: 3517

Station Type: WH 1080

http://www.meteoposchiavo.com

High Low Average
Temperature 66.0°F18.9°C 37.0°F2.8°C 49.7°F9.8°C
Dew Point 32.9°F0.5°C 22.4°F-5.3°C 27.0°F-2.8°C
Winds 5.8 mph 9.3 kmh Calm Calm 1.0 mph SE1.6 kmh SE
Wind Gusts 6.9 mph11.1 kmh -- 1.0 mph1.6 kmh
Humidity 63% 21% 43%
Pressure 26.64 in902.1 mb 26.49 in897.1 mb -
Precipitation 0.00 in0.0 mm - -
Hour Temp Dew Point Humidity Winds Wind Gusts Pressure Precip Precip Rate Daily Precip Total
12:00 AM 42.0°F5.6°C 23.7°F-4.6°C 48% Calm Calm -- 26.61 in901.1 mb - 0.00 in0.0 mm 0.00 in0.0 mm
12:10 AM 41.0°F5.0°C 24.7°F-4.1°C 52% Calm Calm -- 26.62 in901.5 mb - 0.00 in0.0 mm 0.00 in0.0 mm
12:15 AM 42.0°F5.6°C 24.2°F-4.3°C 49% Calm Calm -- 26.62 in901.5 mb - 0.00 in0.0 mm 0.00 in0.0 mm
12:20 AM 42.0°F5.6°C 24.2°F-4.3°C 49% Calm Calm -- 26.62 in901.5 mb - 0.00 in0.0 mm 0.00 in0.0 mm
12:25 AM 42.0°F5.6°C 24.2°F-4.3°C 49% Calm Calm -- 26.61 in901.1 mb - 0.00 in0.0 mm 0.00 in0.0 mm
12:30 AM 42.0°F5.6°C 24.2°F-4.3°C 49% Calm Calm -- 26.61 in901.1 mb - 0.00 in0.0 mm 0.00 in0.0 mm
12:35 AM 42.0°F5.6°C 24.2°F-4.3°C 49% Calm Calm -- 26.62 in901.5 mb - 0.00 in0.0 mm 0.00 in0.0 mm
12:40 AM 42.0°F5.6°C 23.7°F-4.6°C 48% Calm Calm -- 26.61 in901.1 mb - 0.00 in0.0 mm 0.00 in0.0 mm
12:45 AM 42.0°F5.6°C 24.2°F-4.3°C 49% Calm Calm -- 26.61 in901.1 mb - 0.00 in0.0 mm 0.00 in0.0 mm
12:50 AM 42.0°F5.6°C 23.2°F-4.9°C 47% Calm Calm -- 26.61 in901.1 mb - 0.00 in0.0 mm 0.00 in0.0 mm
12:55 AM 42.0°F5.6°C 23.2°F-4.9°C 47% Calm Calm -- 26.61 in901.1 mb - 0.00 in0.0 mm 0.00 in0.0 mm
01:00 AM 42.0°F5.6°C 23.2°F-4.9°C 47% Calm Calm -- 26.61 in901.1 mb - 0.00 in0.0 mm 0.00 in0.0 mm
01:10 AM 42.0°F5.6°C 23.2°F-4.9°C 47% Calm Calm -- 26.62 in901.5 mb - 0.00 in0.0 mm 0.00 in0.0 mm
01:15 AM 41.0°F5.0°C 24.7°F-4.1°C 52% Calm Calm -- 26.62 in901.5 mb - 0.00 in0.0 mm 0.00 in0.0 mm
01:20 AM 41.0°F5.0°C 23.3°F-4.8°C 49% Calm Calm -- 26.62 in901.5 mb - 0.00 in0.0 mm 0.00 in0.0 mm
01:25 AM 42.0°F5.6°C 23.7°F-4.6°C 48% Calm Calm -- 26.61 in901.1 mb - 0.00 in0.0 mm 0.00 in0.0 mm
01:30 AM 42.0°F5.6°C 24.2°F-4.3°C 49% Calm Calm -- 26.62 in901.5 mb - 0.00 in0.0 mm 0.00 in0.0 mm
01:35 AM 41.8°F5.4°C 24.0°F-4.4°C 49% Calm Calm -- 26.62 in901.5 mb - 0.00 in0.0 mm 0.00 in0.0 mm
01:40 AM 41.0°F5.0°C 23.8°F-4.6°C 50% Calm Calm -- 26.62 in901.5 mb - 0.00 in0.0 mm 0.00 in0.0 mm
01:45 AM 41.0°F5.0°C 24.7°F-4.1°C 52% Calm Calm -- 26.62 in901.5 mb - 0.00 in0.0 mm 0.00 in0.0 mm
01:50 AM 40.0°F4.4°C 23.8°F-4.6°C 52% Calm Calm -- 26.62 in901.5 mb - 0.00 in0.0 mm 0.00 in0.0 mm
01:55 AM 41.0°F5.0°C 23.3°F-4.8°C 49% Calm Calm -- 26.62 in901.5 mb - 0.00 in0.0 mm 0.00 in0.0 mm
02:00 AM 41.0°F5.0°C 24.2°F-4.3°C 51% Calm Calm -- 26.61 in901.1 mb - 0.00 in0.0 mm 0.00 in0.0 mm
02:10 AM 40.5°F4.7°C 24.7°F-4.1°C 53% Calm Calm -- 26.62 in901.5 mb - 0.00 in0.0 mm 0.00 in0.0 mm
02:15 AM 40.0°F4.4°C 24.2°F-4.3°C 53% Calm Calm -- 26.63 in901.8 mb - 0.00 in0.0 mm 0.00 in0.0 mm
02:20 AM 41.0°F5.0°C 24.2°F-4.3°C 51% Calm Calm -- 26.62 in901.5 mb - 0.00 in0.0 mm 0.00 in0.0 mm
02:25 AM 40.0°F4.4°C 24.2°F-4.3°C 53% Calm Calm -- 26.62 in901.5 mb - 0.00 in0.0 mm 0.00 in0.0 mm
02:30 AM 41.0°F5.0°C 23.8°F-4.6°C 50% Calm Calm -- 26.62 in901.5 mb - 0.00 in0.0 mm 0.00 in0.0 mm
02:35 AM 41.0°F5.0°C 23.8°F-4.6°C 50% Calm Calm 1.2 mph1.9 kmh 26.62 in901.5 mb - 0.00 in0.0 mm 0.00 in0.0 mm
02:40 AM 41.0°F5.0°C 25.6°F-3.6°C 54% Calm Calm -- 26.62 in901.5 mb - 0.00 in0.0 mm 0.00 in0.0 mm
02:45 AM 40.3°F4.6°C 24.5°F-4.2°C 53% Calm Calm -- 26.62 in901.5 mb - 0.00 in0.0 mm 0.00 in0.0 mm
02:50 AM 40.0°F4.4°C 23.8°F-4.6°C 52% Calm Calm -- 26.62 in901.5 mb - 0.00 in0.0 mm 0.00 in0.0 mm
02:55 AM 40.0°F4.4°C 24.2°F-4.3°C 53% Calm Calm -- 26.62 in901.5 mb - 0.00 in0.0 mm 0.00 in0.0 mm
03:00 AM 39.0°F3.9°C 23.7°F-4.6°C 54% Calm Calm -- 26.62 in901.5 mb - 0.00 in0.0 mm 0.00 in0.0 mm
03:10 AM 39.0°F3.9°C 22.8°F-5.1°C 52% Calm Calm -- 26.62 in901.5 mb - 0.00 in0.0 mm 0.00 in0.0 mm
03:15 AM 39.0°F3.9°C 23.3°F-4.8°C 53% Calm Calm -- 26.62 in901.5 mb - 0.00 in0.0 mm 0.00 in0.0 mm
03:20 AM 39.0°F3.9°C 23.3°F-4.8°C 53% Calm Calm -- 26.62 in901.5 mb - 0.00 in0.0 mm 0.00 in0.0 mm
03:25 AM 39.7°F4.3°C 24.0°F-4.4°C 53% Calm Calm -- 26.62 in901.5 mb - 0.00 in0.0 mm 0.00 in0.0 mm
03:30 AM 39.0°F3.9°C 23.7°F-4.6°C 54% Calm Calm -- 26.62 in901.5 mb - 0.00 in0.0 mm 0.00 in0.0 mm
03:35 AM 38.0°F3.3°C 23.3°F-4.8°C 55% Calm Calm -- 26.62 in901.5 mb - 0.00 in0.0 mm 0.00 in0.0 mm
03:40 AM 39.0°F3.9°C 23.7°F-4.6°C 54% Calm Calm -- 26.62 in901.5 mb - 0.00 in0.0 mm 0.00 in0.0 mm
03:45 AM 39.0°F3.9°C 24.2°F-4.3°C 55% Calm Calm -- 26.62 in901.5 mb - 0.00 in0.0 mm 0.00 in0.0 mm
03:50 AM 39.0°F3.9°C 22.8°F-5.1°C 52% Calm Calm -- 26.62 in901.5 mb - 0.00 in0.0 mm 0.00 in0.0 mm
03:55 AM 39.0°F3.9°C 23.7°F-4.6°C 54% Calm Calm -- 26.62 in901.5 mb - 0.00 in0.0 mm 0.00 in0.0 mm
04:00 AM 39.0°F3.9°C 23.7°F-4.6°C 54% Calm Calm -- 26.62 in901.5 mb - 0.00 in0.0 mm 0.00 in0.0 mm
04:10 AM 38.0°F3.3°C 23.3°F-4.8°C 55% Calm Calm -- 26.62 in901.5 mb - 0.00 in0.0 mm 0.00 in0.0 mm
04:15 AM 38.0°F3.3°C 22.4°F-5.3°C 53% Calm Calm -- 26.62 in901.5 mb - 0.00 in0.0 mm 0.00 in0.0 mm
04:20 AM 38.0°F3.3°C 23.7°F-4.6°C 56% Calm Calm -- 26.62 in901.5 mb - 0.00 in0.0 mm 0.00 in0.0 mm
04:25 AM 39.0°F3.9°C 23.7°F-4.6°C 54% Calm Calm -- 26.62 in901.5 mb - 0.00 in0.0 mm 0.00 in0.0 mm
04:30 AM 39.0°F3.9°C 24.2°F-4.3°C 55% Calm Calm -- 26.62 in901.5 mb - 0.00 in0.0 mm 0.00 in0.0 mm
04:35 AM 39.0°F3.9°C 22.8°F-5.1°C 52% Calm Calm 1.2 mph1.9 kmh 26.62 in901.5 mb - 0.00 in0.0 mm 0.00 in0.0 mm
04:40 AM 39.2°F4.0°C 22.5°F-5.3°C 51% Calm Calm 1.2 mph1.9 kmh 26.62 in901.5 mb - 0.00 in0.0 mm 0.00 in0.0 mm
04:45 AM 40.0°F4.4°C 23.8°F-4.6°C 52% Calm Calm -- 26.62 in901.5 mb - 0.00 in0.0 mm 0.00 in0.0 mm
04:50 AM 40.0°F4.4°C 24.2°F-4.3°C 53% Calm Calm 1.2 mph1.9 kmh 26.62 in901.5 mb - 0.00 in0.0 mm 0.00 in0.0 mm
04:55 AM 40.0°F4.4°C 23.8°F-4.6°C 52% Calm Calm -- 26.62 in901.5 mb - 0.00 in0.0 mm 0.00 in0.0 mm
05:00 AM 40.0°F4.4°C 23.3°F-4.8°C 51% Calm Calm 1.2 mph1.9 kmh 26.62 in901.5 mb - 0.00 in0.0 mm 0.00 in0.0 mm
05:10 AM 39.0°F3.9°C 24.2°F-4.3°C 55% Calm Calm -- 26.61 in901.1 mb - 0.00 in0.0 mm 0.00 in0.0 mm
05:15 AM 39.0°F3.9°C 24.2°F-4.3°C 55% Calm Calm -- 26.61 in901.1 mb - 0.00 in0.0 mm 0.00 in0.0 mm
05:20 AM 39.0°F3.9°C 24.6°F-4.1°C 56% Calm Calm -- 26.62 in901.5 mb - 0.00 in0.0 mm 0.00 in0.0 mm
05:25 AM 39.0°F3.9°C 24.2°F-4.3°C 55% Calm Calm -- 26.62 in901.5 mb - 0.00 in0.0 mm 0.00 in0.0 mm
05:30 AM 38.0°F3.3°C 23.7°F-4.6°C 56% Calm Calm -- 26.61 in901.1 mb - 0.00 in0.0 mm 0.00 in0.0 mm
05:35 AM 39.0°F3.9°C 24.2°F-4.3°C 55% Calm Calm 1.2 mph1.9 kmh 26.62 in901.5 mb - 0.00 in0.0 mm 0.00 in0.0 mm
05:40 AM 39.0°F3.9°C 23.7°F-4.6°C 54% Calm Calm -- 26.61 in901.1 mb - 0.00 in0.0 mm 0.00 in0.0 mm
05:45 AM 39.0°F3.9°C 23.3°F-4.8°C 53% Calm Calm -- 26.61 in901.1 mb - 0.00 in0.0 mm 0.00 in0.0 mm
05:50 AM 39.5°F4.2°C 23.8°F-4.6°C 53% Calm Calm -- 26.61 in901.1 mb - 0.00 in0.0 mm 0.00 in0.0 mm
05:55 AM 40.0°F4.4°C 24.2°F-4.3°C 53% Calm Calm -- 26.61 in901.1 mb - 0.00 in0.0 mm 0.00 in0.0 mm
06:00 AM 39.0°F3.9°C 23.7°F-4.6°C 54% Calm Calm -- 26.62 in901.5 mb - 0.00 in0.0 mm 0.00 in0.0 mm
06:10 AM 39.0°F3.9°C 24.6°F-4.1°C 56% Calm Calm -- 26.62 in901.5 mb - 0.00 in0.0 mm 0.00 in0.0 mm
06:15 AM 39.0°F3.9°C 23.7°F-4.6°C 54% 1.2 mph NE1.9 kmh NE 1.2 mph1.9 kmh 26.62 in901.5 mb - 0.00 in0.0 mm 0.00 in0.0 mm
06:20 AM 39.0°F3.9°C 24.6°F-4.1°C 56% Calm Calm 1.2 mph1.9 kmh 26.62 in901.5 mb - 0.00 in0.0 mm 0.00 in0.0 mm
06:25 AM 38.8°F3.8°C 24.8°F-4.0°C 57% Calm Calm -- 26.62 in901.5 mb - 0.00 in0.0 mm 0.00 in0.0 mm
06:30 AM 38.0°F3.3°C 24.9°F-3.9°C 59% Calm Calm -- 26.62 in901.5 mb - 0.00 in0.0 mm 0.00 in0.0 mm
06:35 AM 37.0°F2.8°C 24.0°F-4.4°C 59% Calm Calm -- 26.62 in901.5 mb - 0.00 in0.0 mm 0.00 in0.0 mm
06:40 AM 39.0°F3.9°C 23.7°F-4.6°C 54% Calm Calm -- 26.62 in901.5 mb - 0.00 in0.0 mm 0.00 in0.0 mm
06:45 AM 39.0°F3.9°C 24.2°F-4.3°C 55% Calm Calm -- 26.62 in901.5 mb - 0.00 in0.0 mm 0.00 in0.0 mm
06:50 AM 38.0°F3.3°C 23.7°F-4.6°C 56% Calm Calm -- 26.62 in901.5 mb - 0.00 in0.0 mm 0.00 in0.0 mm
06:55 AM 38.0°F3.3°C 24.5°F-4.2°C 58% Calm Calm -- 26.63 in901.8 mb - 0.00 in0.0 mm 0.00 in0.0 mm
07:00 AM 37.9°F3.3°C 24.5°F-4.2°C 58% Calm Calm -- 26.63 in901.8 mb - 0.00 in0.0 mm 0.00 in0.0 mm
07:10 AM 37.0°F2.8°C 23.2°F-4.9°C 57% Calm Calm -- 26.64 in902.1 mb - 0.00 in0.0 mm 0.00 in0.0 mm
07:15 AM 37.0°F2.8°C 23.2°F-4.9°C 57% Calm Calm -- 26.63 in901.8 mb - 0.00 in0.0 mm 0.00 in0.0 mm
07:20 AM 37.0°F2.8°C 24.0°F-4.4°C 59% Calm Calm -- 26.63 in901.8 mb - 0.00 in0.0 mm 0.00 in0.0 mm
07:25 AM 37.0°F2.8°C 24.8°F-4.0°C 61% Calm Calm -- 26.64 in902.1 mb - 0.00 in0.0 mm 0.00 in0.0 mm
07:30 AM 37.0°F2.8°C 24.8°F-4.0°C 61% Calm Calm -- 26.63 in901.8 mb - 0.00 in0.0 mm 0.00 in0.0 mm
07:35 AM 37.0°F2.8°C 24.8°F-4.0°C 61% Calm Calm -- 26.63 in901.8 mb - 0.00 in0.0 mm 0.00 in0.0 mm
07:40 AM 37.0°F2.8°C 24.8°F-4.0°C 61% Calm Calm -- 26.63 in901.8 mb - 0.00 in0.0 mm 0.00 in0.0 mm
07:45 AM 38.0°F3.3°C 24.5°F-4.2°C 58% Calm Calm -- 26.63 in901.8 mb - 0.00 in0.0 mm 0.00 in0.0 mm
07:50 AM 38.0°F3.3°C 24.5°F-4.2°C 58% Calm Calm -- 26.64 in902.1 mb - 0.00 in0.0 mm 0.00 in0.0 mm
07:55 AM 38.0°F3.3°C 24.5°F-4.2°C 58% Calm Calm -- 26.63 in901.8 mb - 0.00 in0.0 mm 0.00 in0.0 mm
08:00 AM 38.0°F3.3°C 26.5°F-3.1°C 63% Calm Calm -- 26.63 in901.8 mb - 0.00 in0.0 mm 0.00 in0.0 mm
08:10 AM 37.0°F2.8°C 25.6°F-3.6°C 63% Calm Calm -- 26.62 in901.5 mb - 0.00 in0.0 mm 0.00 in0.0 mm
08:15 AM 38.0°F3.3°C 25.3°F-3.7°C 60% Calm Calm -- 26.63 in901.8 mb - 0.00 in0.0 mm 0.00 in0.0 mm
08:20 AM 40.0°F4.4°C 26.0°F-3.3°C 57% Calm Calm -- 26.63 in901.8 mb - 0.00 in0.0 mm 0.00 in0.0 mm
08:25 AM 41.0°F5.0°C 27.8°F-2.3°C 59% Calm Calm -- 26.62 in901.5 mb - 0.00 in0.0 mm 0.00 in0.0 mm
08:30 AM 42.0°F5.6°C 26.5°F-3.1°C 54% Calm Calm -- 26.62 in901.5 mb - 0.00 in0.0 mm 0.00 in0.0 mm
08:35 AM 43.6°F6.4°C 25.7°F-3.5°C 49% Calm Calm -- 26.63 in901.8 mb - 0.00 in0.0 mm 0.00 in0.0 mm
08:40 AM 44.1°F6.7°C 25.6°F-3.6°C 48% Calm Calm -- 26.63 in901.8 mb - 0.00 in0.0 mm 0.00 in0.0 mm
08:45 AM 45.0°F7.2°C 27.0°F-2.8°C 49% Calm Calm -- 26.62 in901.5 mb - 0.00 in0.0 mm 0.00 in0.0 mm
08:50 AM 46.0°F7.8°C 28.4°F-2.0°C 50% Calm Calm -- 26.62 in901.5 mb - 0.00 in0.0 mm 0.00 in0.0 mm
08:55 AM 47.0°F8.3°C 28.3°F-2.1°C 48% Calm Calm -- 26.62 in901.5 mb - 0.00 in0.0 mm 0.00 in0.0 mm
09:00 AM 48.0°F8.9°C 27.6°F-2.4°C 45% Calm Calm -- 26.61 in901.1 mb - 0.00 in0.0 mm 0.00 in0.0 mm
09:10 AM 49.5°F9.7°C 29.0°F-1.7°C 45% Calm Calm -- 26.61 in901.1 mb - 0.00 in0.0 mm 0.00 in0.0 mm
09:15 AM 50.0°F10.0°C 28.9°F-1.7°C 44% Calm Calm -- 26.61 in901.1 mb - 0.00 in0.0 mm 0.00 in0.0 mm
09:20 AM 50.0°F10.0°C 27.8°F-2.3°C 42% Calm Calm -- 26.60 in900.8 mb - 0.00 in0.0 mm 0.00 in0.0 mm
09:25 AM 51.0°F10.6°C 28.1°F-2.2°C 41% Calm Calm -- 26.60 in900.8 mb - 0.00 in0.0 mm 0.00 in0.0 mm
09:30 AM 51.0°F10.6°C 27.5°F-2.5°C 40% Calm Calm -- 26.60 in900.8 mb - 0.00 in0.0 mm 0.00 in0.0 mm
09:35 AM 52.0°F11.1°C 28.4°F-2.0°C 40% Calm Calm -- 26.60 in900.8 mb - 0.00 in0.0 mm 0.00 in0.0 mm
09:40 AM 52.9°F11.6°C 29.9°F-1.2°C 41% Calm Calm 1.2 mph1.9 kmh 26.60 in900.8 mb - 0.00 in0.0 mm 0.00 in0.0 mm
09:45 AM 53.2°F11.8°C 30.1°F-1.1°C 41% Calm Calm 1.2 mph1.9 kmh 26.60 in900.8 mb - 0.00 in0.0 mm 0.00 in0.0 mm
09:50 AM 54.0°F12.2°C 29.6°F-1.3°C 39% Calm Calm -- 26.60 in900.8 mb - 0.00 in0.0 mm 0.00 in0.0 mm
09:55 AM 54.0°F12.2°C 25.5°F-3.6°C 33% Calm Calm 1.2 mph1.9 kmh 26.60 in900.8 mb - 0.00 in0.0 mm 0.00 in0.0 mm
10:00 AM 55.0°F12.8°C 24.9°F-3.9°C 31% 2.3 mph NW3.7 kmh NW 2.3 mph3.7 kmh 26.60 in900.8 mb - 0.00 in0.0 mm 0.00 in0.0 mm
10:10 AM 55.0°F12.8°C 24.9°F-3.9°C 31% 1.2 mph NW1.9 kmh NW 1.2 mph1.9 kmh 26.58 in900.1 mb - 0.00 in0.0 mm 0.00 in0.0 mm
10:15 AM 55.0°F12.8°C 24.9°F-3.9°C 31% 1.2 mph NW1.9 kmh NW 2.3 mph3.7 kmh 26.58 in900.1 mb - 0.00 in0.0 mm 0.00 in0.0 mm
10:20 AM 55.0°F12.8°C 25.6°F-3.6°C 32% 2.3 mph WNW3.7 kmh WNW 2.3 mph3.7 kmh 26.58 in900.1 mb - 0.00 in0.0 mm 0.00 in0.0 mm
10:25 AM 55.0°F12.8°C 24.9°F-3.9°C 31% 2.3 mph W3.7 kmh W 2.3 mph3.7 kmh 26.58 in900.1 mb - 0.00 in0.0 mm 0.00 in0.0 mm
10:30 AM 55.0°F12.8°C 25.6°F-3.6°C 32% 2.3 mph W3.7 kmh W 2.3 mph3.7 kmh 26.59 in900.4 mb - 0.00 in0.0 mm 0.00 in0.0 mm
10:35 AM 56.0°F13.3°C 26.5°F-3.1°C 32% 2.3 mph WSW3.7 kmh WSW 3.5 mph5.6 kmh 26.58 in900.1 mb - 0.00 in0.0 mm 0.00 in0.0 mm
10:40 AM 56.0°F13.3°C 25.8°F-3.4°C 31% 2.3 mph W3.7 kmh W 2.3 mph3.7 kmh 26.58 in900.1 mb - 0.00 in0.0 mm 0.00 in0.0 mm
10:45 AM 56.7°F13.7°C 27.9°F-2.3°C 33% 1.2 mph WSW1.9 kmh WSW 2.3 mph3.7 kmh 26.57 in899.8 mb - 0.00 in0.0 mm 0.00 in0.0 mm
10:50 AM 57.0°F13.9°C 28.9°F-1.7°C 34% 1.2 mph SW1.9 kmh SW 2.3 mph3.7 kmh 26.57 in899.8 mb - 0.00 in0.0 mm 0.00 in0.0 mm
10:55 AM 56.0°F13.3°C 28.7°F-1.8°C 35% 1.2 mph NW1.9 kmh NW 1.2 mph1.9 kmh 26.57 in899.8 mb - 0.00 in0.0 mm 0.00 in0.0 mm
11:00 AM 57.0°F13.9°C 26.6°F-3.0°C 31% Calm Calm -- 26.57 in899.8 mb - 0.00 in0.0 mm 0.00 in0.0 mm
11:10 AM 57.0°F13.9°C 26.6°F-3.0°C 31% 2.3 mph W3.7 kmh W 2.3 mph3.7 kmh 26.56 in899.4 mb - 0.00 in0.0 mm 0.00 in0.0 mm
11:15 AM 57.0°F13.9°C 26.6°F-3.0°C 31% Calm Calm -- 26.57 in899.8 mb - 0.00 in0.0 mm 0.00 in0.0 mm
11:20 AM 57.2°F14.0°C 26.8°F-2.9°C 31% Calm Calm 3.5 mph5.6 kmh 26.57 in899.8 mb - 0.00 in0.0 mm 0.00 in0.0 mm
11:25 AM 58.0°F14.4°C 25.9°F-3.4°C 29% 2.3 mph SSW3.7 kmh SSW 3.5 mph5.6 kmh 26.57 in899.8 mb - 0.00 in0.0 mm 0.00 in0.0 mm
11:30 AM 58.0°F14.4°C 28.3°F-2.1°C 32% 3.5 mph WSW5.6 kmh WSW 6.9 mph11.1 kmh 26.56 in899.4 mb - 0.00 in0.0 mm 0.00 in0.0 mm
11:35 AM 59.0°F15.0°C 27.6°F-2.4°C 30% 3.5 mph S5.6 kmh S 3.5 mph5.6 kmh 26.56 in899.4 mb - 0.00 in0.0 mm 0.00 in0.0 mm
11:40 AM 59.0°F15.0°C 27.6°F-2.4°C 30% 3.5 mph SW5.6 kmh SW 5.8 mph9.3 kmh 26.55 in899.1 mb - 0.00 in0.0 mm 0.00 in0.0 mm
11:45 AM 60.0°F15.6°C 26.8°F-2.9°C 28% Calm Calm 1.2 mph1.9 kmh 26.55 in899.1 mb - 0.00 in0.0 mm 0.00 in0.0 mm
11:50 AM 60.0°F15.6°C 28.4°F-2.0°C 30% 1.2 mph W1.9 kmh W 5.8 mph9.3 kmh 26.55 in899.1 mb - 0.00 in0.0 mm 0.00 in0.0 mm
11:55 AM 60.0°F15.6°C 30.0°F-1.1°C 32% 3.5 mph WSW5.6 kmh WSW 5.8 mph9.3 kmh 26.56 in899.4 mb - 0.00 in0.0 mm 0.00 in0.0 mm
12:00 PM 60.0°F15.6°C 30.0°F-1.1°C 32% 3.5 mph W5.6 kmh W 3.5 mph5.6 kmh 26.55 in899.1 mb - 0.00 in0.0 mm 0.00 in0.0 mm
12:10 PM 61.0°F16.1°C 28.5°F-1.9°C 29% 3.5 mph WSW5.6 kmh WSW 5.8 mph9.3 kmh 26.54 in898.7 mb - 0.00 in0.0 mm 0.00 in0.0 mm
12:15 PM 61.0°F16.1°C 29.3°F-1.5°C 30% 3.5 mph NW5.6 kmh NW 3.5 mph5.6 kmh 26.54 in898.7 mb - 0.00 in0.0 mm 0.00 in0.0 mm
12:20 PM 61.5°F16.4°C 29.7°F-1.3°C 30% 4.6 mph S7.4 kmh S 6.9 mph11.1 kmh 26.54 in898.7 mb - 0.00 in0.0 mm 0.00 in0.0 mm
12:25 PM 62.0°F16.7°C 29.3°F-1.5°C 29% 5.8 mph S9.3 kmh S 6.9 mph11.1 kmh 26.53 in898.4 mb - 0.00 in0.0 mm 0.00 in0.0 mm
12:30 PM 62.0°F16.7°C 27.6°F-2.4°C 27% 2.3 mph NW3.7 kmh NW 3.5 mph5.6 kmh 26.54 in898.7 mb - 0.00 in0.0 mm 0.00 in0.0 mm
12:35 PM 62.0°F16.7°C 28.5°F-1.9°C 28% 3.5 mph WSW5.6 kmh WSW 3.5 mph5.6 kmh 26.53 in898.4 mb - 0.00 in0.0 mm 0.00 in0.0 mm
12:40 PM 62.0°F16.7°C 28.5°F-1.9°C 28% 4.6 mph SSW7.4 kmh SSW 5.8 mph9.3 kmh 26.53 in898.4 mb - 0.00 in0.0 mm 0.00 in0.0 mm
12:45 PM 63.0°F17.2°C 29.4°F-1.4°C 28% 4.6 mph SSW7.4 kmh SSW 5.8 mph9.3 kmh 26.53 in898.4 mb - 0.00 in0.0 mm 0.00 in0.0 mm
12:50 PM 63.0°F17.2°C 29.4°F-1.4°C 28% 4.6 mph SW7.4 kmh SW 5.8 mph9.3 kmh 26.53 in898.4 mb - 0.00 in0.0 mm 0.00 in0.0 mm
12:55 PM 62.0°F16.7°C 27.6°F-2.4°C 27% 3.5 mph NW5.6 kmh NW 3.5 mph5.6 kmh 26.52 in898.1 mb - 0.00 in0.0 mm 0.00 in0.0 mm
01:00 PM 63.0°F17.2°C 29.4°F-1.4°C 28% 2.3 mph WSW3.7 kmh WSW 3.5 mph5.6 kmh 26.52 in898.1 mb - 0.00 in0.0 mm 0.00 in0.0 mm
01:10 PM 64.0°F17.8°C 27.4°F-2.6°C 25% 1.2 mph NW1.9 kmh NW 1.2 mph1.9 kmh 26.52 in898.1 mb - 0.00 in0.0 mm 0.00 in0.0 mm
01:15 PM 64.0°F17.8°C 28.4°F-2.0°C 26% 1.2 mph NNW1.9 kmh NNW 3.5 mph5.6 kmh 26.52 in898.1 mb - 0.00 in0.0 mm 0.00 in0.0 mm
01:20 PM 64.0°F17.8°C 28.4°F-2.0°C 26% 2.3 mph SSW3.7 kmh SSW 3.5 mph5.6 kmh 26.52 in898.1 mb - 0.00 in0.0 mm 0.00 in0.0 mm
01:25 PM 64.0°F17.8°C 27.4°F-2.6°C 25% 3.5 mph S5.6 kmh S 3.5 mph5.6 kmh 26.53 in898.4 mb - 0.00 in0.0 mm 0.00 in0.0 mm
01:30 PM 64.0°F17.8°C 27.4°F-2.6°C 25% 2.3 mph WSW3.7 kmh WSW 2.3 mph3.7 kmh 26.52 in898.1 mb - 0.00 in0.0 mm 0.00 in0.0 mm
01:35 PM 65.0°F18.3°C 24.1°F-4.4°C 21% Calm Calm 1.2 mph1.9 kmh 26.51 in897.7 mb - 0.00 in0.0 mm 0.00 in0.0 mm
01:40 PM 65.0°F18.3°C 28.3°F-2.1°C 25% 3.5 mph WSW5.6 kmh WSW 5.8 mph9.3 kmh 26.52 in898.1 mb - 0.00 in0.0 mm 0.00 in0.0 mm
01:45 PM 66.0°F18.9°C 27.1°F-2.7°C 23% 2.3 mph WSW3.7 kmh WSW 3.5 mph5.6 kmh 26.51 in897.7 mb - 0.00 in0.0 mm 0.00 in0.0 mm
01:50 PM 66.0°F18.9°C 29.1°F-1.6°C 25% 2.3 mph WSW3.7 kmh WSW 3.5 mph5.6 kmh 26.51 in897.7 mb - 0.00 in0.0 mm 0.00 in0.0 mm
01:55 PM 64.0°F17.8°C 28.4°F-2.0°C 26% 2.3 mph WSW3.7 kmh WSW 3.5 mph5.6 kmh 26.51 in897.7 mb - 0.00 in0.0 mm 0.00 in0.0 mm
02:00 PM 65.0°F18.3°C 26.3°F-3.2°C 23% Calm Calm 1.2 mph1.9 kmh 26.51 in897.7 mb - 0.00 in0.0 mm 0.00 in0.0 mm
02:10 PM 64.0°F17.8°C 24.4°F-4.2°C 22% 1.2 mph SSW1.9 kmh SSW 3.5 mph5.6 kmh 26.50 in897.4 mb - 0.00 in0.0 mm 0.00 in0.0 mm
02:15 PM 63.0°F17.2°C 29.4°F-1.4°C 28% 2.3 mph NW3.7 kmh NW 3.5 mph5.6 kmh 26.50 in897.4 mb - 0.00 in0.0 mm 0.00 in0.0 mm
02:20 PM 64.0°F17.8°C 26.4°F-3.1°C 24% 2.3 mph NW3.7 kmh NW 3.5 mph5.6 kmh 26.51 in897.7 mb - 0.00 in0.0 mm 0.00 in0.0 mm
02:25 PM 64.0°F17.8°C 26.4°F-3.1°C 24% 1.2 mph NNW1.9 kmh NNW 3.5 mph5.6 kmh 26.51 in897.7 mb - 0.00 in0.0 mm 0.00 in0.0 mm
02:30 PM 64.0°F17.8°C 28.4°F-2.0°C 26% Calm Calm 1.2 mph1.9 kmh 26.51 in897.7 mb - 0.00 in0.0 mm 0.00 in0.0 mm
02:35 PM 65.0°F18.3°C 29.2°F-1.6°C 26% 3.5 mph SW5.6 kmh SW 3.5 mph5.6 kmh 26.51 in897.7 mb - 0.00 in0.0 mm 0.00 in0.0 mm
02:40 PM 65.0°F18.3°C 30.2°F-1.0°C 27% 3.5 mph SW5.6 kmh SW 3.5 mph5.6 kmh 26.50 in897.4 mb - 0.00 in0.0 mm 0.00 in0.0 mm
02:45 PM 66.0°F18.9°C 30.1°F-1.1°C 26% 2.3 mph W3.7 kmh W 3.5 mph5.6 kmh 26.50 in897.4 mb - 0.00 in0.0 mm 0.00 in0.0 mm
02:50 PM 65.0°F18.3°C 29.2°F-1.6°C 26% 2.3 mph WSW3.7 kmh WSW 3.5 mph5.6 kmh 26.50 in897.4 mb - 0.00 in0.0 mm 0.00 in0.0 mm
02:55 PM 64.5°F18.1°C 28.8°F-1.8°C 26% 2.3 mph WNW3.7 kmh WNW 3.5 mph5.6 kmh 26.50 in897.4 mb - 0.00 in0.0 mm 0.00 in0.0 mm
03:00 PM 64.0°F17.8°C 29.3°F-1.5°C 27% 2.3 mph NW3.7 kmh NW 3.5 mph5.6 kmh 26.50 in897.4 mb - 0.00 in0.0 mm 0.00 in0.0 mm
03:10 PM 65.0°F18.3°C 30.2°F-1.0°C 27% 1.2 mph NW1.9 kmh NW 2.3 mph3.7 kmh 26.49 in897.1 mb - 0.00 in0.0 mm 0.00 in0.0 mm
03:15 PM 65.0°F18.3°C 29.2°F-1.6°C 26% 3.5 mph W5.6 kmh W 6.9 mph11.1 kmh 26.50 in897.4 mb - 0.00 in0.0 mm 0.00 in0.0 mm
03:20 PM 65.0°F18.3°C 29.2°F-1.6°C 26% 2.3 mph W3.7 kmh W 3.5 mph5.6 kmh 26.49 in897.1 mb - 0.00 in0.0 mm 0.00 in0.0 mm
03:25 PM 64.3°F17.9°C 26.7°F-2.9°C 24% 2.3 mph NW3.7 kmh NW 3.5 mph5.6 kmh 26.50 in897.4 mb - 0.00 in0.0 mm 0.00 in0.0 mm
03:30 PM 64.0°F17.8°C 26.4°F-3.1°C 24% 2.3 mph NNW3.7 kmh NNW 3.5 mph5.6 kmh 26.50 in897.4 mb - 0.00 in0.0 mm 0.00 in0.0 mm
03:35 PM 65.0°F18.3°C 27.3°F-2.6°C 24% 1.2 mph NW1.9 kmh NW 2.3 mph3.7 kmh 26.49 in897.1 mb - 0.00 in0.0 mm 0.00 in0.0 mm
03:40 PM 66.0°F18.9°C 27.1°F-2.7°C 23% 1.2 mph NW1.9 kmh NW 1.2 mph1.9 kmh 26.49 in897.1 mb - 0.00 in0.0 mm 0.00 in0.0 mm
03:45 PM 65.0°F18.3°C 25.2°F-3.8°C 22% Calm Calm -- 26.49 in897.1 mb - 0.00 in0.0 mm 0.00 in0.0 mm
03:50 PM 64.0°F17.8°C 26.4°F-3.1°C 24% Calm Calm -- 26.49 in897.1 mb - 0.00 in0.0 mm 0.00 in0.0 mm
03:55 PM 65.0°F18.3°C 26.3°F-3.2°C 23% Calm Calm -- 26.50 in897.4 mb - 0.00 in0.0 mm 0.00 in0.0 mm
04:00 PM 64.7°F18.2°C 27.0°F-2.8°C 24% Calm Calm 1.2 mph1.9 kmh 26.50 in897.4 mb - 0.00 in0.0 mm 0.00 in0.0 mm
04:10 PM 63.0°F17.2°C 25.6°F-3.6°C 24% Calm Calm 1.2 mph1.9 kmh 26.49 in897.1 mb - 0.00 in0.0 mm 0.00 in0.0 mm
04:15 PM 60.0°F15.6°C 27.6°F-2.4°C 29% Calm Calm -- 26.49 in897.1 mb - 0.00 in0.0 mm 0.00 in0.0 mm
04:20 PM 60.0°F15.6°C 28.4°F-2.0°C 30% Calm Calm -- 26.50 in897.4 mb - 0.00 in0.0 mm 0.00 in0.0 mm
04:25 PM 60.0°F15.6°C 27.6°F-2.4°C 29% Calm Calm -- 26.49 in897.1 mb - 0.00 in0.0 mm 0.00 in0.0 mm
04:30 PM 60.6°F15.9°C 27.3°F-2.6°C 28% Calm Calm -- 26.49 in897.1 mb - 0.00 in0.0 mm 0.00 in0.0 mm
04:35 PM 61.0°F16.1°C 26.7°F-2.9°C 27% Calm Calm -- 26.49 in897.1 mb - 0.00 in0.0 mm 0.00 in0.0 mm
04:40 PM 61.0°F16.1°C 27.6°F-2.4°C 28% Calm Calm 1.2 mph1.9 kmh 26.49 in897.1 mb - 0.00 in0.0 mm 0.00 in0.0 mm
04:45 PM 59.0°F15.0°C 28.4°F-2.0°C 31% Calm Calm 1.2 mph1.9 kmh 26.50 in897.4 mb - 0.00 in0.0 mm 0.00 in0.0 mm
04:50 PM 59.0°F15.0°C 27.6°F-2.4°C 30% 1.2 mph NW1.9 kmh NW 1.2 mph1.9 kmh 26.50 in897.4 mb - 0.00 in0.0 mm 0.00 in0.0 mm
04:55 PM 59.0°F15.0°C 25.9°F-3.4°C 28% 1.2 mph N1.9 kmh N 1.2 mph1.9 kmh 26.50 in897.4 mb - 0.00 in0.0 mm 0.00 in0.0 mm
05:00 PM 60.0°F15.6°C 30.8°F-0.7°C 33% Calm Calm -- 26.49 in897.1 mb - 0.00 in0.0 mm 0.00 in0.0 mm
05:10 PM 58.0°F14.4°C 31.2°F-0.4°C 36% Calm Calm -- 26.49 in897.1 mb - 0.00 in0.0 mm 0.00 in0.0 mm
05:15 PM 57.0°F13.9°C 29.6°F-1.3°C 35% Calm Calm -- 26.49 in897.1 mb - 0.00 in0.0 mm 0.00 in0.0 mm
05:20 PM 58.0°F14.4°C 28.3°F-2.1°C 32% Calm Calm 1.2 mph1.9 kmh 26.49 in897.1 mb - 0.00 in0.0 mm 0.00 in0.0 mm
05:25 PM 58.0°F14.4°C 27.5°F-2.5°C 31% Calm Calm -- 26.50 in897.4 mb - 0.00 in0.0 mm 0.00 in0.0 mm
05:30 PM 58.0°F14.4°C 29.0°F-1.7°C 33% Calm Calm -- 26.50 in897.4 mb - 0.00 in0.0 mm 0.00 in0.0 mm
05:35 PM 58.0°F14.4°C 28.3°F-2.1°C 32% Calm Calm 1.2 mph1.9 kmh 26.50 in897.4 mb - 0.00 in0.0 mm 0.00 in0.0 mm
05:40 PM 58.0°F14.4°C 28.3°F-2.1°C 32% Calm Calm 1.2 mph1.9 kmh 26.50 in897.4 mb - 0.00 in0.0 mm 0.00 in0.0 mm
05:45 PM 57.0°F13.9°C 27.4°F-2.6°C 32% Calm Calm -- 26.50 in897.4 mb - 0.00 in0.0 mm 0.00 in0.0 mm
05:50 PM 58.0°F14.4°C 28.3°F-2.1°C 32% Calm Calm 1.2 mph1.9 kmh 26.50 in897.4 mb - 0.00 in0.0 mm 0.00 in0.0 mm
05:55 PM 57.0°F13.9°C 27.4°F-2.6°C 32% Calm Calm -- 26.50 in897.4 mb - 0.00 in0.0 mm 0.00 in0.0 mm
06:00 PM 57.0°F13.9°C 27.4°F-2.6°C 32% Calm Calm -- 26.50 in897.4 mb - 0.00 in0.0 mm 0.00 in0.0 mm
06:10 PM 57.0°F13.9°C 27.4°F-2.6°C 32% 1.2 mph NW1.9 kmh NW 1.2 mph1.9 kmh 26.51 in897.7 mb - 0.00 in0.0 mm 0.00 in0.0 mm
06:15 PM 57.0°F13.9°C 27.4°F-2.6°C 32% Calm Calm -- 26.51 in897.7 mb - 0.00 in0.0 mm 0.00 in0.0 mm
06:20 PM 56.0°F13.3°C 28.0°F-2.2°C 34% Calm Calm -- 26.51 in897.7 mb - 0.00 in0.0 mm 0.00 in0.0 mm
06:25 PM 56.0°F13.3°C 28.0°F-2.2°C 34% Calm Calm 1.2 mph1.9 kmh 26.51 in897.7 mb - 0.00 in0.0 mm 0.00 in0.0 mm
06:30 PM 56.0°F13.3°C 28.7°F-1.8°C 35% Calm Calm 1.2 mph1.9 kmh 26.51 in897.7 mb - 0.00 in0.0 mm 0.00 in0.0 mm
06:35 PM 55.0°F12.8°C 28.5°F-1.9°C 36% Calm Calm -- 26.52 in898.1 mb - 0.00 in0.0 mm 0.00 in0.0 mm
06:40 PM 55.0°F12.8°C 30.5°F-0.8°C 39% Calm Calm -- 26.52 in898.1 mb - 0.00 in0.0 mm 0.00 in0.0 mm
06:45 PM 55.0°F12.8°C 32.9°F0.5°C 43% Calm Calm -- 26.52 in898.1 mb - 0.00 in0.0 mm 0.00 in0.0 mm
06:50 PM 54.0°F12.2°C 29.6°F-1.3°C 39% Calm Calm -- 26.52 in898.1 mb - 0.00 in0.0 mm 0.00 in0.0 mm
06:55 PM 53.0°F11.7°C 31.1°F-0.5°C 43% Calm Calm -- 26.52 in898.1 mb - 0.00 in0.0 mm 0.00 in0.0 mm
07:00 PM 51.0°F10.6°C 30.4°F-0.9°C 45% Calm Calm -- 26.53 in898.4 mb - 0.00 in0.0 mm 0.00 in0.0 mm
07:10 PM 51.0°F10.6°C 30.4°F-0.9°C 45% Calm Calm -- 26.53 in898.4 mb - 0.00 in0.0 mm 0.00 in0.0 mm
07:15 PM 51.0°F10.6°C 30.4°F-0.9°C 45% Calm Calm -- 26.53 in898.4 mb - 0.00 in0.0 mm 0.00 in0.0 mm
07:20 PM 51.0°F10.6°C 30.9°F-0.6°C 46% Calm Calm -- 26.53 in898.4 mb - 0.00 in0.0 mm 0.00 in0.0 mm
07:25 PM 51.0°F10.6°C 29.8°F-1.2°C 44% Calm Calm -- 26.54 in898.7 mb - 0.00 in0.0 mm 0.00 in0.0 mm
07:30 PM 51.0°F10.6°C 30.9°F-0.6°C 46% Calm Calm -- 26.55 in899.1 mb - 0.00 in0.0 mm 0.00 in0.0 mm
07:35 PM 49.0°F9.4°C 30.7°F-0.7°C 49% Calm Calm -- 26.54 in898.7 mb - 0.00 in0.0 mm 0.00 in0.0 mm
07:40 PM 49.0°F9.4°C 31.2°F-0.4°C 50% Calm Calm -- 26.54 in898.7 mb - 0.00 in0.0 mm 0.00 in0.0 mm
07:45 PM 49.0°F9.4°C 29.6°F-1.3°C 47% Calm Calm -- 26.55 in899.1 mb - 0.00 in0.0 mm 0.00 in0.0 mm
07:50 PM 49.0°F9.4°C 29.6°F-1.3°C 47% Calm Calm -- 26.55 in899.1 mb - 0.00 in0.0 mm 0.00 in0.0 mm
07:55 PM 49.0°F9.4°C 30.7°F-0.7°C 49% Calm Calm -- 26.55 in899.1 mb - 0.00 in0.0 mm 0.00 in0.0 mm
08:00 PM 48.0°F8.9°C 31.2°F-0.4°C 52% Calm Calm -- 26.55 in899.1 mb - 0.00 in0.0 mm 0.00 in0.0 mm
08:10 PM 49.0°F9.4°C 30.1°F-1.1°C 48% Calm Calm -- 26.56 in899.4 mb - 0.00 in0.0 mm 0.00 in0.0 mm
08:15 PM 48.0°F8.9°C 29.7°F-1.3°C 49% Calm Calm -- 26.56 in899.4 mb - 0.00 in0.0 mm 0.00 in0.0 mm
08:20 PM 48.0°F8.9°C 30.7°F-0.7°C 51% Calm Calm -- 26.56 in899.4 mb - 0.00 in0.0 mm 0.00 in0.0 mm
08:25 PM 48.0°F8.9°C 30.7°F-0.7°C 51% Calm Calm -- 26.56 in899.4 mb - 0.00 in0.0 mm 0.00 in0.0 mm
08:30 PM 48.0°F8.9°C 30.2°F-1.0°C 50% Calm Calm -- 26.56 in899.4 mb - 0.00 in0.0 mm 0.00 in0.0 mm
08:35 PM 47.0°F8.3°C 31.2°F-0.4°C 54% Calm Calm -- 26.57 in899.8 mb - 0.00 in0.0 mm 0.00 in0.0 mm
08:40 PM 47.0°F8.3°C 29.3°F-1.5°C 50% Calm Calm -- 26.57 in899.8 mb - 0.00 in0.0 mm 0.00 in0.0 mm
08:45 PM 47.0°F8.3°C 29.8°F-1.2°C 51% Calm Calm -- 26.57 in899.8 mb - 0.00 in0.0 mm 0.00 in0.0 mm
08:50 PM 46.0°F7.8°C 29.3°F-1.5°C 52% Calm Calm -- 26.57 in899.8 mb - 0.00 in0.0 mm 0.00 in0.0 mm
08:55 PM 46.0°F7.8°C 29.8°F-1.2°C 53% Calm Calm -- 26.58 in900.1 mb - 0.00 in0.0 mm 0.00 in0.0 mm
09:00 PM 46.0°F7.8°C 29.8°F-1.2°C 53% Calm Calm -- 26.58 in900.1 mb - 0.00 in0.0 mm 0.00 in0.0 mm
09:10 PM 46.0°F7.8°C 29.8°F-1.2°C 53% Calm Calm -- 26.58 in900.1 mb - 0.00 in0.0 mm 0.00 in0.0 mm
09:15 PM 46.0°F7.8°C 30.3°F-0.9°C 54% Calm Calm -- 26.58 in900.1 mb - 0.00 in0.0 mm 0.00 in0.0 mm
09:20 PM 46.0°F7.8°C 29.8°F-1.2°C 53% Calm Calm -- 26.59 in900.4 mb - 0.00 in0.0 mm 0.00 in0.0 mm
09:25 PM 46.0°F7.8°C 28.4°F-2.0°C 50% Calm Calm -- 26.59 in900.4 mb - 0.00 in0.0 mm 0.00 in0.0 mm
09:30 PM 46.0°F7.8°C 30.3°F-0.9°C 54% Calm Calm -- 26.58 in900.1 mb - 0.00 in0.0 mm 0.00 in0.0 mm
09:35 PM 45.3°F7.4°C 30.0°F-1.1°C 55% Calm Calm -- 26.59 in900.4 mb - 0.00 in0.0 mm 0.00 in0.0 mm
09:40 PM 45.0°F7.2°C 29.8°F-1.2°C 55% Calm Calm -- 26.59 in900.4 mb - 0.00 in0.0 mm 0.00 in0.0 mm
09:45 PM 45.0°F7.2°C 29.3°F-1.5°C 54% Calm Calm -- 26.59 in900.4 mb - 0.00 in0.0 mm 0.00 in0.0 mm
09:50 PM 46.0°F7.8°C 29.3°F-1.5°C 52% Calm Calm -- 26.58 in900.1 mb - 0.00 in0.0 mm 0.00 in0.0 mm
09:55 PM 46.0°F7.8°C 30.3°F-0.9°C 54% Calm Calm -- 26.58 in900.1 mb - 0.00 in0.0 mm 0.00 in0.0 mm
10:00 PM 45.0°F7.2°C 28.9°F-1.7°C 53% Calm Calm -- 26.59 in900.4 mb - 0.00 in0.0 mm 0.00 in0.0 mm
10:10 PM 45.0°F7.2°C 29.8°F-1.2°C 55% Calm Calm -- 26.59 in900.4 mb - 0.00 in0.0 mm 0.00 in0.0 mm
10:15 PM 45.0°F7.2°C 29.8°F-1.2°C 55% Calm Calm -- 26.59 in900.4 mb - 0.00 in0.0 mm 0.00 in0.0 mm
10:20 PM 45.0°F7.2°C 30.2°F-1.0°C 56% Calm Calm -- 26.59 in900.4 mb - 0.00 in0.0 mm 0.00 in0.0 mm
10:25 PM 44.0°F6.7°C 29.7°F-1.3°C 57% Calm Calm -- 26.59 in900.4 mb - 0.00 in0.0 mm 0.00 in0.0 mm
10:30 PM 44.0°F6.7°C 28.9°F-1.7°C 55% Calm Calm -- 26.59 in900.4 mb - 0.00 in0.0 mm 0.00 in0.0 mm
10:35 PM 45.0°F7.2°C 30.2°F-1.0°C 56% Calm Calm -- 26.59 in900.4 mb - 0.00 in0.0 mm 0.00 in0.0 mm
10:40 PM 44.0°F6.7°C 29.3°F-1.5°C 56% Calm Calm -- 26.59 in900.4 mb - 0.00 in0.0 mm 0.00 in0.0 mm
10:45 PM 44.0°F6.7°C 29.7°F-1.3°C 57% Calm Calm -- 26.59 in900.4 mb - 0.00 in0.0 mm 0.00 in0.0 mm
10:50 PM 44.5°F6.9°C 29.8°F-1.2°C 56% Calm Calm -- 26.59 in900.4 mb - 0.00 in0.0 mm 0.00 in0.0 mm
10:55 PM 45.0°F7.2°C 29.3°F-1.5°C 54% Calm Calm -- 26.59 in900.4 mb - 0.00 in0.0 mm 0.00 in0.0 mm
11:00 PM 44.0°F6.7°C 29.3°F-1.5°C 56% Calm Calm -- 26.59 in900.4 mb - 0.00 in0.0 mm 0.00 in0.0 mm
11:10 PM 44.0°F6.7°C 28.9°F-1.7°C 55% Calm Calm -- 26.60 in900.8 mb - 0.00 in0.0 mm 0.00 in0.0 mm
11:15 PM 44.0°F6.7°C 28.9°F-1.7°C 55% Calm Calm -- 26.59 in900.4 mb - 0.00 in0.0 mm 0.00 in0.0 mm
11:20 PM 44.0°F6.7°C 29.3°F-1.5°C 56% Calm Calm -- 26.59 in900.4 mb - 0.00 in0.0 mm 0.00 in0.0 mm
11:25 PM 44.0°F6.7°C 29.7°F-1.3°C 57% Calm Calm -- 26.59 in900.4 mb - 0.00 in0.0 mm 0.00 in0.0 mm
11:30 PM 42.8°F6.0°C 28.6°F-1.9°C 57% Calm Calm -- 26.59 in900.4 mb - 0.00 in0.0 mm 0.00 in0.0 mm
11:35 PM 42.0°F5.6°C 28.3°F-2.1°C 58% Calm Calm -- 26.59 in900.4 mb - 0.00 in0.0 mm 0.00 in0.0 mm
11:40 PM 42.0°F5.6°C 27.4°F-2.6°C 56% Calm Calm 1.2 mph1.9 kmh 26.60 in900.8 mb - 0.00 in0.0 mm 0.00 in0.0 mm
11:45 PM 42.0°F5.6°C 27.9°F-2.3°C 57% Calm Calm -- 26.59 in900.4 mb - 0.00 in0.0 mm 0.00 in0.0 mm
11:50 PM 42.0°F5.6°C 28.3°F-2.1°C 58% Calm Calm -- 26.59 in900.4 mb - 0.00 in0.0 mm 0.00 in0.0 mm
11:55 PM 41.0°F5.0°C 28.6°F-1.9°C 61% Calm Calm -- 26.59 in900.4 mb - 0.00 in0.0 mm 0.00 in0.0 mm